createdAt,value
2018-03-23T00:00:43.617Z,61.90
2018-03-23T00:03:11.202Z,62.30
2018-03-23T00:05:38.778Z,60.60
2018-03-23T00:08:06.380Z,63.70
2018-03-23T00:10:34.717Z,61.50
2018-03-23T00:13:02.317Z,61.60
2018-03-23T00:15:30.493Z,63.20
2018-03-23T00:17:58.854Z,61.00
2018-03-23T00:20:26.417Z,61.00
2018-03-23T00:22:54.778Z,60.10
2018-03-23T00:25:22.952Z,60.10
2018-03-23T00:27:50.545Z,59.50
2018-03-23T00:30:18.105Z,61.30
2018-03-23T00:32:45.706Z,62.30
2018-03-23T00:35:13.268Z,61.20
2018-03-23T00:37:40.862Z,61.80
2018-03-23T00:40:08.435Z,63.90
2018-03-23T00:42:36.231Z,64.50
2018-03-23T00:45:03.802Z,66.20
2018-03-23T00:47:31.373Z,63.60
2018-03-23T00:49:59.728Z,64.10
2018-03-23T00:52:27.299Z,64.10
2018-03-23T00:54:54.889Z,65.20
2018-03-23T00:57:26.257Z,64.50
2018-03-23T00:59:55.521Z,61.30
2018-03-23T01:02:23.088Z,61.30
2018-03-23T01:04:50.705Z,62.90
2018-03-23T01:07:18.269Z,65.60
2018-03-23T01:09:45.860Z,67.20
2018-03-23T01:12:13.439Z,68.50
2018-03-23T01:14:41.798Z,66.70
2018-03-23T01:17:09.374Z,66.60
2018-03-23T01:19:36.975Z,63.90
2018-03-23T01:22:04.546Z,62.40
2018-03-23T01:24:32.143Z,61.30
2018-03-23T01:26:59.727Z,60.30
2018-03-23T01:29:28.092Z,61.40
2018-03-23T01:31:56.432Z,64.00
2018-03-23T01:34:24.026Z,63.90
2018-03-23T01:36:52.366Z,61.50
2018-03-23T01:39:19.929Z,61.50
2018-03-23T01:41:47.521Z,65.80
2018-03-23T01:44:15.854Z,63.70
2018-03-23T01:46:43.435Z,63.60
2018-03-23T01:49:11.018Z,62.20
2018-03-23T01:51:38.616Z,60.50
2018-03-23T01:54:06.186Z,60.20
2018-03-23T01:56:33.779Z,61.30
2018-03-23T01:59:02.134Z,66.40
2018-03-23T02:01:29.728Z,65.20
2018-03-23T02:03:57.301Z,66.30
2018-03-23T02:06:25.656Z,64.80
2018-03-23T02:08:53.221Z,64.80
2018-03-23T02:11:21.582Z,64.60
2018-03-23T02:13:49.149Z,64.50
2018-03-23T02:16:16.729Z,62.30
2018-03-23T02:18:44.290Z,68.40
2018-03-23T02:21:11.890Z,65.20
2018-03-23T02:23:39.458Z,68.50
2018-03-23T02:26:07.044Z,64.70
2018-03-23T02:28:34.619Z,66.70
2018-03-23T02:31:02.210Z,67.40
2018-03-23T02:33:29.782Z,68.60
2018-03-23T02:35:57.373Z,67.90
2018-03-23T02:38:24.937Z,66.30
2018-03-23T02:40:52.529Z,66.80
2018-03-23T02:43:20.104Z,65.30
2018-03-23T02:45:47.670Z,68.00
2018-03-23T02:48:15.257Z,68.20
2018-03-23T02:50:42.825Z,65.20
2018-03-23T02:53:10.417Z,65.70
2018-03-23T02:55:38.753Z,63.40
2018-03-23T02:58:06.341Z,63.40
2018-03-23T03:00:34.686Z,63.00
2018-03-23T03:03:02.841Z,62.90
2018-03-23T03:05:30.417Z,63.10
2018-03-23T03:07:58.017Z,65.90
2018-03-23T03:10:27.543Z,65.60
2018-03-23T03:12:55.141Z,65.50
2018-03-23T03:15:22.713Z,64.90
2018-03-23T03:17:50.343Z,64.40
2018-03-23T03:20:17.913Z,64.40
2018-03-23T03:22:46.273Z,66.10
2018-03-23T03:25:13.844Z,65.70
2018-03-23T03:27:41.445Z,62.80
2018-03-23T03:30:09.010Z,61.00
2018-03-23T03:32:36.598Z,62.60
2018-03-23T03:35:04.160Z,63.40
2018-03-23T03:37:31.749Z,65.60
2018-03-23T03:39:59.312Z,63.70
2018-03-23T03:42:26.902Z,64.80
2018-03-23T03:44:54.461Z,64.00
2018-03-23T03:47:22.816Z,61.60
2018-03-23T03:49:50.383Z,61.50
2018-03-23T03:52:17.979Z,65.10
2018-03-23T03:54:45.540Z,62.10
2018-03-23T03:57:13.097Z,61.90
2018-03-23T03:59:40.701Z,62.60
2018-03-23T04:02:08.269Z,64.40
2018-03-23T04:04:35.860Z,63.80
2018-03-23T04:07:03.429Z,65.70
2018-03-23T04:09:31.012Z,66.20
2018-03-23T04:11:58.588Z,65.80
2018-03-23T04:14:26.181Z,64.30
2018-03-23T04:16:53.754Z,66.90
2018-03-23T04:19:21.346Z,69.60
2018-03-23T04:21:48.914Z,65.50
2018-03-23T04:24:16.501Z,63.80
2018-03-23T04:26:44.078Z,62.90
2018-03-23T04:29:11.671Z,64.10
2018-03-23T04:31:39.250Z,63.50
2018-03-23T04:34:06.865Z,66.40
2018-03-23T04:36:34.433Z,63.80
2018-03-23T04:39:02.798Z,64.60
2018-03-23T04:41:31.142Z,66.70
2018-03-23T04:43:58.726Z,66.70
2018-03-23T04:46:26.316Z,64.80
2018-03-23T04:48:53.906Z,65.10
2018-03-23T04:51:21.473Z,69.10
2018-03-23T04:53:49.068Z,66.50
2018-03-23T04:56:16.654Z,66.20
2018-03-23T04:58:44.254Z,68.50
2018-03-23T05:01:11.835Z,67.70
2018-03-23T05:03:45.120Z,68.20
2018-03-23T05:06:12.698Z,68.10
2018-03-23T05:08:40.260Z,65.10
2018-03-23T05:11:07.860Z,66.50
2018-03-23T05:13:35.438Z,64.50
2018-03-23T05:16:03.022Z,65.40
2018-03-23T05:18:30.584Z,65.00
2018-03-23T05:20:58.166Z,65.80
2018-03-23T05:23:26.496Z,70.50
2018-03-23T05:25:54.087Z,70.40
2018-03-23T05:28:21.660Z,68.10
2018-03-23T05:30:50.013Z,65.50
2018-03-23T05:33:17.584Z,65.50
2018-03-23T05:35:45.937Z,62.50
2018-03-23T05:38:13.520Z,62.30
2018-03-23T05:40:41.154Z,64.00
2018-03-23T05:43:08.705Z,63.00
2018-03-23T05:45:36.341Z,62.90
2018-03-23T05:48:03.906Z,62.70
2018-03-23T05:50:31.488Z,64.00
2018-03-23T05:52:59.052Z,63.00
2018-03-23T05:55:26.632Z,63.90
2018-03-23T05:57:58.934Z,61.90
2018-03-23T06:00:26.520Z,62.00
2018-03-23T06:02:54.077Z,63.70
2018-03-23T06:05:21.641Z,61.70
2018-03-23T06:07:49.228Z,65.00
2018-03-23T06:10:16.785Z,64.30
2018-03-23T06:12:44.368Z,63.80
2018-03-23T06:15:12.778Z,66.10
2018-03-23T06:17:40.357Z,66.00
2018-03-23T06:20:07.927Z,65.70
2018-03-23T06:22:35.528Z,63.40
2018-03-23T06:25:03.862Z,64.50
2018-03-23T06:27:31.454Z,64.50
2018-03-23T06:29:59.786Z,67.30
2018-03-23T06:32:27.366Z,67.20
2018-03-23T06:34:54.947Z,67.10
2018-03-23T06:37:22.536Z,66.00
2018-03-23T06:39:50.103Z,66.90
2018-03-23T06:42:17.983Z,69.80
2018-03-23T06:44:45.543Z,70.40
2018-03-23T06:47:13.177Z,69.80
2018-03-23T06:49:40.717Z,69.70
2018-03-23T06:52:09.068Z,64.90
2018-03-23T06:54:36.634Z,64.90
2018-03-23T06:57:04.222Z,66.70
2018-03-23T06:59:31.789Z,64.80
2018-03-23T07:01:59.368Z,67.70
2018-03-23T07:04:26.927Z,67.50
2018-03-23T07:06:54.512Z,66.00
2018-03-23T07:09:22.073Z,65.10
2018-03-23T07:11:49.671Z,68.10
2018-03-23T07:14:18.798Z,68.70
2018-03-23T07:16:46.386Z,68.70
2018-03-23T07:19:13.973Z,67.90
2018-03-23T07:21:41.544Z,67.80
2018-03-23T07:24:09.914Z,65.90
2018-03-23T07:26:37.470Z,65.90
2018-03-23T07:29:05.818Z,68.20
2018-03-23T07:31:33.377Z,68.20
2018-03-23T07:34:00.969Z,68.00
2018-03-23T07:36:28.533Z,69.00
2018-03-23T07:38:56.876Z,69.70
2018-03-23T07:41:24.442Z,69.60
2018-03-23T07:43:52.029Z,67.70
2018-03-23T07:46:20.365Z,65.70
2018-03-23T07:48:48.181Z,65.60
2018-03-23T07:51:15.746Z,65.90
2018-03-23T07:53:43.346Z,66.50
2018-03-23T07:56:10.914Z,66.30
2018-03-23T07:58:38.507Z,67.90
2018-03-23T08:01:06.103Z,67.10
2018-03-23T08:03:33.684Z,69.80
2018-03-23T08:06:01.245Z,66.60
2018-03-23T08:08:28.860Z,65.40
2018-03-23T08:10:56.424Z,69.60
2018-03-23T08:13:24.433Z,69.80
2018-03-23T08:15:51.997Z,67.00
2018-03-23T08:18:19.591Z,65.40
2018-03-23T08:20:47.158Z,67.50
2018-03-23T08:23:14.719Z,68.80
2018-03-23T08:25:42.297Z,67.30
2018-03-23T08:28:09.853Z,63.70
2018-03-23T08:30:37.445Z,67.30
2018-03-23T08:33:05.787Z,66.30
2018-03-23T08:35:34.234Z,67.20
2018-03-23T08:38:02.574Z,68.30
2018-03-23T08:40:30.162Z,68.30
2018-03-23T08:42:57.734Z,69.40
2018-03-23T08:45:26.090Z,68.60
2018-03-23T08:47:53.658Z,68.50
2018-03-23T08:50:22.014Z,65.80
2018-03-23T08:52:49.577Z,65.70
2018-03-23T08:55:17.171Z,69.50
2018-03-23T08:57:44.734Z,70.00
2018-03-23T09:00:12.315Z,68.70
2018-03-23T09:02:39.877Z,70.10
2018-03-23T09:05:07.489Z,69.80
2018-03-23T09:07:35.812Z,68.50
2018-03-23T09:10:03.445Z,68.50
2018-03-23T09:12:31.205Z,68.80
2018-03-23T09:14:59.581Z,69.90
2018-03-23T09:17:27.914Z,68.60
2018-03-23T09:19:55.472Z,68.50
2018-03-23T09:22:23.063Z,66.80
2018-03-23T09:24:50.628Z,69.30
2018-03-23T09:27:18.221Z,69.50
2018-03-23T09:29:45.787Z,70.30
2018-03-23T09:32:13.378Z,68.80
2018-03-23T09:34:40.946Z,68.10
2018-03-23T09:37:08.534Z,68.30
2018-03-23T09:39:36.107Z,66.90
2018-03-23T09:42:03.694Z,67.50
2018-03-23T09:44:31.265Z,67.40
2018-03-23T09:46:58.861Z,69.20
2018-03-23T09:49:26.425Z,67.70
2018-03-23T09:51:54.769Z,69.10
2018-03-23T09:54:22.341Z,69.10
2018-03-23T09:56:49.926Z,67.90
2018-03-23T09:59:17.489Z,68.40
2018-03-23T10:01:45.077Z,67.40
2018-03-23T10:04:12.646Z,67.20
2018-03-23T10:06:40.254Z,67.50
2018-03-23T10:09:09.773Z,68.00
2018-03-23T10:11:37.340Z,67.90
2018-03-23T10:14:04.929Z,68.60
2018-03-23T10:16:33.300Z,67.80
2018-03-23T10:19:01.654Z,67.00
2018-03-23T10:21:29.274Z,67.00
2018-03-23T10:23:56.855Z,66.70
2018-03-23T10:26:24.430Z,65.90
2018-03-23T10:28:52.019Z,65.80
2018-03-23T10:31:19.597Z,69.20
2018-03-23T10:33:47.199Z,67.30
2018-03-23T10:36:14.762Z,66.60
2018-03-23T10:38:42.346Z,66.60
2018-03-23T10:41:09.905Z,68.20
2018-03-23T10:43:37.493Z,67.20
2018-03-23T10:46:05.057Z,66.00
2018-03-23T10:48:32.654Z,67.30
2018-03-23T10:51:00.223Z,66.60
2018-03-23T10:53:27.992Z,65.50
2018-03-23T10:55:55.568Z,65.70
2018-03-23T10:58:23.177Z,66.10
2018-03-23T11:00:57.123Z,68.10
2018-03-23T11:03:24.705Z,68.10
2018-03-23T11:05:55.705Z,66.60
2018-03-23T11:08:23.288Z,66.80
2018-03-23T11:10:50.855Z,66.50
2018-03-23T11:13:18.426Z,66.50
2018-03-23T11:15:46.068Z,66.30
2018-03-23T11:18:13.629Z,66.30
2018-03-23T11:20:41.205Z,66.00
2018-03-23T11:23:08.813Z,66.90
2018-03-23T11:25:36.397Z,67.10
2018-03-23T11:28:03.959Z,65.90
2018-03-23T11:30:31.550Z,65.70
2018-03-23T11:32:59.122Z,66.30
2018-03-23T11:35:26.716Z,67.30
2018-03-23T11:37:54.292Z,65.50
2018-03-23T11:40:21.892Z,66.90
2018-03-23T11:42:49.459Z,67.50
2018-03-23T11:45:17.051Z,66.80
2018-03-23T11:47:44.614Z,65.60
2018-03-23T11:50:12.199Z,67.30
2018-03-23T11:52:39.766Z,66.40
2018-03-23T11:55:07.369Z,65.90
2018-03-23T11:57:35.705Z,65.80
2018-03-23T12:00:03.297Z,65.90
2018-03-23T12:02:30.865Z,65.70
2018-03-23T12:04:59.213Z,68.50
2018-03-23T12:07:26.785Z,68.40
2018-03-23T12:09:55.245Z,66.00
2018-03-23T12:12:22.838Z,66.00
2018-03-23T12:14:51.170Z,66.80
2018-03-23T12:17:19.522Z,67.40
2018-03-23T12:19:47.098Z,67.20
2018-03-23T12:22:14.705Z,65.50
2018-03-23T12:24:42.278Z,66.10
2018-03-23T12:27:10.633Z,65.80
2018-03-23T12:29:38.197Z,65.70
2018-03-23T12:32:05.820Z,65.90
2018-03-23T12:34:33.380Z,65.40
2018-03-23T12:37:00.960Z,65.50
2018-03-23T12:39:29.313Z,65.50
2018-03-23T12:41:56.894Z,65.50
2018-03-23T12:44:24.466Z,65.10
2018-03-23T12:46:52.052Z,65.00
2018-03-23T12:49:19.624Z,65.10
2018-03-23T12:51:47.210Z,64.90
2018-03-23T12:54:14.783Z,64.90
2018-03-23T12:56:42.390Z,63.50
2018-03-23T12:59:09.956Z,63.10
2018-03-23T13:01:37.549Z,63.50
2018-03-23T13:04:05.125Z,63.50
2018-03-23T13:06:32.742Z,62.90
2018-03-23T13:09:00.317Z,62.60
2018-03-23T13:11:27.886Z,62.40
2018-03-23T13:13:55.472Z,62.80
2018-03-23T13:16:23.778Z,62.30
2018-03-23T13:18:51.377Z,61.40
2018-03-23T13:21:18.957Z,61.20
2018-03-23T13:23:46.550Z,61.20
2018-03-23T13:26:14.890Z,60.80
2018-03-23T13:28:42.482Z,60.80
2018-03-23T13:31:10.048Z,60.70
2018-03-23T13:33:37.637Z,60.30
2018-03-23T13:36:05.273Z,60.20
2018-03-23T13:38:32.884Z,59.50
2018-03-23T13:41:00.508Z,59.60
2018-03-23T13:43:28.105Z,59.80
2018-03-23T13:45:55.682Z,59.30
2018-03-23T13:48:23.280Z,60.30
2018-03-23T13:50:50.840Z,60.90
2018-03-23T13:53:18.426Z,60.70
2018-03-23T13:55:45.992Z,60.60
2018-03-23T13:58:13.638Z,60.60
2018-03-23T14:00:46.774Z,60.70
2018-03-23T14:03:15.129Z,61.00
2018-03-23T14:05:42.696Z,61.10
2018-03-23T14:08:10.267Z,61.20
2018-03-23T14:10:38.629Z,59.20
2018-03-23T14:13:06.198Z,59.20
2018-03-23T14:15:33.782Z,59.30
2018-03-23T14:18:01.351Z,60.10
2018-03-23T14:20:28.937Z,60.20
2018-03-23T14:22:56.510Z,60.30
2018-03-23T14:25:24.178Z,59.60
2018-03-23T14:27:53.102Z,59.60
2018-03-23T14:30:21.453Z,59.60
2018-03-23T14:32:49.020Z,59.60
2018-03-23T14:35:16.609Z,59.80
2018-03-23T14:37:44.205Z,59.60
2018-03-23T14:40:11.798Z,59.60
2018-03-23T14:42:39.367Z,59.10
2018-03-23T14:45:38.636Z,59.60
2018-03-23T14:48:06.202Z,59.30
2018-03-23T14:50:33.794Z,59.30
2018-03-23T14:53:01.366Z,59.30
2018-03-23T14:55:28.957Z,59.30
2018-03-23T14:57:56.522Z,58.90
2018-03-23T15:00:24.111Z,58.90
2018-03-23T15:02:51.687Z,58.90
2018-03-23T15:05:19.284Z,59.10
2018-03-23T15:07:46.854Z,59.00
2018-03-23T15:10:14.476Z,59.40
2018-03-23T15:12:42.798Z,59.10
2018-03-23T15:15:10.398Z,58.80
2018-03-23T15:17:37.970Z,59.30
2018-03-23T15:20:05.562Z,58.60
2018-03-23T15:22:33.149Z,57.90
2018-03-23T15:25:00.720Z,58.90
2018-03-23T15:27:28.305Z,58.90
2018-03-23T15:29:55.880Z,58.70
2018-03-23T15:32:23.483Z,58.80
2018-03-23T15:34:51.058Z,59.30
2018-03-23T15:37:18.649Z,59.10
2018-03-23T15:39:46.221Z,59.00
2018-03-23T15:42:13.816Z,58.70
2018-03-23T15:44:41.386Z,59.10
2018-03-23T15:47:08.973Z,59.30
2018-03-23T15:49:36.536Z,59.60
2018-03-23T15:52:04.893Z,59.00
2018-03-23T15:54:35.068Z,58.90
2018-03-23T15:57:02.695Z,58.90
2018-03-23T15:59:31.031Z,59.10
2018-03-23T16:01:58.678Z,59.10
2018-03-23T16:04:26.266Z,59.20
2018-03-23T16:10:10.885Z,58.90
2018-03-23T16:12:38.482Z,59.10
2018-03-23T16:15:06.308Z,59.00
2018-03-23T16:17:33.894Z,59.30
2018-03-23T16:20:01.470Z,59.80
2018-03-23T16:22:29.067Z,59.70
2018-03-23T16:24:57.404Z,59.60
2018-03-23T16:27:25.005Z,59.60
2018-03-23T16:29:52.576Z,59.50
2018-03-23T16:32:20.449Z,59.50
2018-03-23T16:34:48.019Z,59.50
2018-03-23T16:37:15.619Z,60.00
2018-03-23T16:39:43.194Z,60.00
2018-03-23T16:42:10.762Z,59.60
2018-03-23T16:44:38.354Z,59.60
2018-03-23T16:47:05.927Z,61.10
2018-03-23T16:49:33.509Z,61.20
2018-03-23T16:52:01.077Z,61.00
2018-03-23T16:54:28.664Z,61.20
2018-03-23T16:56:56.236Z,61.00
2018-03-23T16:59:23.836Z,61.30
2018-03-23T17:01:51.396Z,60.90
2018-03-23T17:04:18.981Z,60.80
2018-03-23T17:06:46.576Z,61.40
2018-03-23T17:09:14.174Z,60.90
2018-03-23T17:11:41.762Z,61.90
2018-03-23T17:14:09.349Z,61.80
2018-03-23T17:16:36.913Z,61.40
2018-03-23T17:19:04.505Z,61.20
2018-03-23T17:21:32.106Z,61.50
2018-03-23T17:23:59.705Z,61.10
2018-03-23T17:26:27.278Z,61.80
2018-03-23T17:28:54.861Z,61.50
2018-03-23T17:31:22.433Z,61.30
2018-03-23T17:33:50.034Z,61.40
2018-03-23T17:36:18.495Z,61.70
2018-03-23T17:38:46.064Z,61.80
2018-03-23T17:41:13.655Z,62.30
2018-03-23T17:43:41.229Z,61.80
2018-03-23T17:46:08.826Z,62.10
2018-03-23T17:48:36.404Z,61.60
2018-03-23T17:51:03.988Z,62.20
2018-03-23T17:53:31.562Z,63.50
2018-03-23T17:55:59.927Z,64.00
2018-03-23T17:58:27.485Z,63.80
2018-03-23T18:00:55.069Z,63.50
2018-03-23T18:03:22.638Z,62.60
2018-03-23T18:05:50.242Z,63.80
2018-03-23T18:08:17.812Z,62.80
2018-03-23T18:10:45.402Z,62.60
2018-03-23T18:13:12.988Z,62.80
2018-03-23T18:15:40.641Z,62.10
2018-03-23T18:18:08.212Z,62.90
2018-03-23T18:20:37.545Z,63.80
2018-03-23T18:23:05.474Z,63.60
2018-03-23T18:25:33.056Z,62.70
2018-03-23T18:28:00.629Z,65.50
2018-03-23T18:30:28.217Z,64.00
2018-03-23T18:32:55.796Z,63.40
2018-03-23T18:35:23.394Z,64.80
2018-03-23T18:37:50.957Z,63.30
2018-03-23T18:40:18.573Z,62.70
2018-03-23T18:42:46.146Z,62.40
2018-03-23T18:45:13.774Z,62.40
2018-03-23T18:47:41.336Z,62.20
2018-03-23T18:50:08.922Z,61.50
2018-03-23T18:52:36.532Z,62.10
2018-03-23T18:55:04.106Z,61.70
2018-03-23T18:57:31.701Z,61.80
2018-03-23T18:59:59.261Z,61.80
2018-03-23T19:02:27.618Z,62.40
2018-03-23T19:04:55.181Z,62.40
2018-03-23T19:07:22.816Z,63.00
2018-03-23T19:09:50.369Z,64.40
2018-03-23T19:12:17.987Z,64.30
2018-03-23T19:14:45.573Z,66.00
2018-03-23T19:17:13.171Z,64.70
2018-03-23T19:19:41.321Z,62.90
2018-03-23T19:22:08.914Z,62.80
2018-03-23T19:24:36.494Z,64.80
2018-03-23T19:27:04.855Z,62.90
2018-03-23T19:29:32.421Z,62.80
2018-03-23T19:32:00.776Z,63.80
2018-03-23T19:34:28.349Z,63.80
2018-03-23T19:36:55.947Z,62.80
2018-03-23T19:39:23.529Z,63.20
2018-03-23T19:41:51.116Z,62.50
2018-03-23T19:44:18.681Z,64.30
2018-03-23T19:46:46.254Z,62.50
2018-03-23T19:49:13.846Z,62.10
2018-03-23T19:51:41.461Z,62.20
2018-03-23T19:54:09.064Z,61.70
2018-03-23T19:56:36.698Z,61.20
2018-03-23T19:59:04.321Z,62.40
2018-03-23T20:01:31.892Z,62.20
2018-03-23T20:03:59.487Z,62.10
2018-03-23T20:06:27.830Z,63.60
2018-03-23T20:08:55.631Z,63.60
2018-03-23T20:11:23.201Z,63.40
2018-03-23T20:13:56.431Z,64.30
2018-03-23T20:16:24.001Z,63.10
2018-03-23T20:18:51.589Z,63.50
2018-03-23T20:21:19.917Z,62.50
2018-03-23T20:23:47.512Z,62.50
2018-03-23T20:26:15.089Z,62.60
2018-03-23T20:28:43.603Z,62.90
2018-03-23T20:31:11.173Z,63.70
2018-03-23T20:33:38.758Z,61.80
2018-03-23T20:36:06.337Z,62.50
2018-03-23T20:38:34.693Z,63.50
2018-03-23T20:41:02.261Z,63.30
2018-03-23T20:43:29.893Z,63.40
2018-03-23T20:45:57.518Z,64.00
2018-03-23T20:48:25.112Z,64.80
2018-03-23T20:50:52.694Z,65.80
2018-03-23T20:53:20.281Z,65.70
2018-03-23T20:55:48.616Z,65.10
2018-03-23T20:58:16.228Z,65.00
2018-03-23T21:00:43.793Z,62.20
2018-03-23T21:03:11.362Z,63.90
2018-03-23T21:05:38.959Z,63.70
2018-03-23T21:08:06.531Z,61.90
2018-03-23T21:10:34.126Z,62.70
2018-03-23T21:13:01.702Z,62.30
2018-03-23T21:15:29.363Z,61.00
2018-03-23T21:17:56.928Z,60.70
2018-03-23T21:20:24.527Z,60.30
2018-03-23T21:22:52.092Z,62.80
2018-03-23T21:25:19.695Z,62.30
2018-03-23T21:27:47.266Z,62.60
2018-03-23T21:30:14.862Z,62.20
2018-03-23T21:32:42.428Z,64.40
2018-03-23T21:35:10.019Z,63.50
2018-03-23T21:37:37.588Z,61.70
2018-03-23T21:40:05.181Z,61.70
2018-03-23T21:42:32.773Z,62.30
2018-03-23T21:45:01.136Z,62.50
2018-03-23T21:47:28.706Z,62.30
2018-03-23T21:49:56.306Z,62.30
2018-03-23T21:52:23.883Z,65.50
2018-03-23T21:54:51.469Z,66.10
2018-03-23T21:57:19.054Z,62.90
2018-03-23T21:59:47.419Z,62.20
2018-03-23T22:02:14.993Z,62.10
2018-03-23T22:04:43.341Z,61.20
2018-03-23T22:07:10.933Z,61.20
2018-03-23T22:09:38.505Z,64.20
2018-03-23T22:12:06.102Z,61.70
2018-03-23T22:14:34.441Z,64.10
2018-03-23T22:17:02.042Z,64.10
2018-03-23T22:19:29.614Z,64.10
2018-03-23T22:21:57.209Z,63.50
2018-03-23T22:24:27.410Z,65.50
2018-03-23T22:26:55.007Z,63.80
2018-03-23T22:29:22.574Z,64.80
2018-03-23T22:31:50.160Z,62.40
2018-03-23T22:34:17.734Z,62.40
2018-03-23T22:36:45.321Z,63.90
2018-03-23T22:39:12.881Z,68.40
2018-03-23T22:41:41.246Z,62.80
2018-03-23T22:44:09.572Z,65.40
2018-03-23T22:46:37.304Z,65.40
2018-03-23T22:49:04.869Z,62.70
2018-03-23T22:51:32.449Z,62.00
2018-03-23T22:54:00.018Z,62.50
2018-03-23T22:56:27.610Z,61.90
2018-03-23T22:58:55.173Z,63.70
2018-03-23T23:01:22.756Z,64.50
2018-03-23T23:03:51.090Z,61.80
2018-03-23T23:06:18.683Z,61.80
2018-03-23T23:08:46.245Z,63.20
2018-03-23T23:11:13.838Z,64.30
2018-03-23T23:13:41.414Z,64.80
2018-03-23T23:16:09.898Z,64.20
2018-03-23T23:18:37.484Z,64.30
2018-03-23T23:21:05.062Z,67.00
2018-03-23T23:23:32.657Z,65.80
2018-03-23T23:26:00.221Z,64.40
2018-03-23T23:28:27.821Z,63.20
2018-03-23T23:30:55.384Z,65.80
2018-03-23T23:33:22.978Z,65.30
2018-03-23T23:35:50.541Z,64.00
2018-03-23T23:38:18.133Z,64.70
2018-03-23T23:40:46.476Z,63.70
2018-03-23T23:43:14.061Z,63.70
2018-03-23T23:45:41.629Z,63.00
2018-03-23T23:48:09.222Z,63.30
2018-03-23T23:50:36.785Z,62.90
2018-03-23T23:53:05.135Z,62.50
2018-03-23T23:55:32.701Z,62.40
2018-03-23T23:58:00.284Z,63.20
